New Blessing — 3EBD7 — position and weather

sailwx.info

Track history (hours):
 
Tides and Currents Weather Stations Pressure Air Temp Water Temp Dewpoint Dewpoint Depression Visibility Wind Speed Wind Dir Waves Ship Positions

New Blessing

Last reported at 2016-Jul-09 02:16 UTC. Time now 2016-Jul-28 22:22 UTC.
Position N 32°00' E 119°59'.
Warning: this ship's position is 19 days out of date.

Length 176 m; draft 6.1 m.

Type: Cargo ship. MMSI: 367513184.

Date/timePositionNaut miles runAvg speedWind from/ knotsBaromVisibWave heightAir tempDewpointWater temp
2016-Jul-09 02:16N 32°00' E 119°59'4 4.2
2016-Jul-09 01:16N 31°58' E 120°03'4 5.1
2016-Jul-09 00:23N 31°57' E 120°08'6 5.6
2016-Jul-08 23:19N 31°56' E 120°15'5 5.7
2016-Jul-08 22:30N 31°59' E 120°20'5 5.7
2016-Jul-08 21:32N 32°02' E 120°25'6 5.8
2016-Jul-08 20:33N 32°04' E 120°31'10 4.7
2016-Jul-08 18:30N 32°00' E 120°41'3 3.5
2016-Jul-08 17:30N 32°01' E 120°45'5 4.4
2016-Jul-08 16:27N 31°59' E 120°50'4 3.8
2016-Jul-08 15:18N 31°55' E 120°53'21 4.4
2016-Jul-08 10:31N 31°41' E 121°11'6 6.7
2016-Jul-08 09:34N 31°37' E 121°17'7 7.4
2016-Jul-08 08:33N 31°31' E 121°23'7 7.3
2016-Jul-08 07:32N 31°26' E 121°29'  
Track history (hours):
 
Tides and Currents Weather Stations Pressure Air Temp Water Temp Dewpoint Dewpoint Depression Visibility Wind Speed Wind Dir Waves Ship Positions

New Blessing

Last reported at 2016-Jul-09 02:16 UTC. Time now 2016-Jul-28 22:22 UTC.
Position N 32°00' E 119°59'.
Warning: this ship's position is 19 days out of date.

Length 176 m; draft 6.1 m.

Type: Cargo ship. MMSI: 367513184.

Date/timePositionNaut miles runAvg speedWind from/ knotsBaromVisibWave heightAir tempDewpointWater temp
2016-Jul-09 02:16N 32°00' E 119°59'4 4.2
2016-Jul-09 01:16N 31°58' E 120°03'4 5.1
2016-Jul-09 00:23N 31°57' E 120°08'6 5.6
2016-Jul-08 23:19N 31°56' E 120°15'5 5.7
2016-Jul-08 22:30N 31°59' E 120°20'5 5.7
2016-Jul-08 21:32N 32°02' E 120°25'6 5.8
2016-Jul-08 20:33N 32°04' E 120°31'10 4.7
2016-Jul-08 18:30N 32°00' E 120°41'3 3.5
2016-Jul-08 17:30N 32°01' E 120°45'5 4.4
2016-Jul-08 16:27N 31°59' E 120°50'4 3.8
2016-Jul-08 15:18N 31°55' E 120°53'21 4.4
2016-Jul-08 10:31N 31°41' E 121°11'6 6.7
2016-Jul-08 09:34N 31°37' E 121°17'7 7.4
2016-Jul-08 08:33N 31°31' E 121°23'7 7.3
2016-Jul-08 07:32N 31°26' E 121°29'  

Dump ship's entire track history